KSRB  Upper Cumberland Regional Airport

Add Bookmark

Sparta, Tennessee, United States

Status Useage
Operational Public
Latitude Longitude
36° 3' 24" N 85° 31' 48" W
36.056739 -85.530108
Local (DST -5) UTC (GMT -6)
Sep 1, 2014 11:16 Sep 2, 2014 04:16
Sunrise-Sunset Local UTC
Begin Civil Twilight 05:47 10:47
Sunrise 06:13 11:13
Sunset 07:10 00:10
End Civil Twilight 07:36 00:36

Current Weather

METAR Observed VFR
KSRB 020355Z AUTO 00000KT 10SM CLR 23/22 A3007 Tue, Sep 2, 2014 @ 03:55 UTC
(21 Minutes ago)
Visual Flight Rules
Wind Visibility Clouds Conditions
Calm 10 statute miles
  • Clear skies
  • No significant weather
Temperatures Readings Precipitation
Current Temp 23°C (73°F)
Dewpoint 22°C (72°F)
Humidity 94%
Altimeter 30.07"Hg
Sea Level Pressure 1018mb
None Recorded

Additional weather within a 50nm radius of KSRB

Map ICAO Location
KCSV 22.5nm E (106°)
KRNC 26.3nm S (215°)
KMQY 48.1nm W (267°)

24 Hour Weather History

Loading
-

24 Hour Weather Graphs

Loading
-

CheckWX.com is intended as a tool to help pilots better visualize weather data. It is not intended as a substitute for an official weather briefing obtained from a Flight Service Station. CheckWX.com does not meet the FAA requirements for an official pre-flight weather briefing. Therefore, it's important that pilots still call and obtain an official FSS pre-flight weather briefing.